MSC Amsterdam — 3EUJ — position and weather

sailwx.info

Track history (hours):
 
Tides and Currents Weather Stations Pressure Air Temp Water Temp Dewpoint Dewpoint Depression Visibility Wind Speed Wind Dir Waves Ship Positions

MSC Amsterdam

Last reported at 2018-May-18 11:22 UTC. Time now 2018-May-20 21:53 UTC.
Position N 22°56' E 117°09'.

Length 399 m; draft 12.3 m.

Type: Cargo ship. MMSI: 373598000.

Date/timePositionNaut miles runAvg speedWind from/ knotsBaromVisibWave heightAir tempDewpointWater temp
2018-May-18 11:22N 22°56' E 117°09'613.0
2018-May-18 10:55N 22°59' E 117°14'713.2
2018-May-18 10:24N 23°03' E 117°20'613.1
2018-May-18 09:55N 23°06' E 117°26'513.1
2018-May-18 09:30N 23°10' E 117°31'713.2
2018-May-18 09:00N 23°13' E 117°37'713.2
2018-May-18 08:30N 23°18' E 117°42'713.7
2018-May-18 08:00N 23°22' E 117°48'713.9
2018-May-18 07:30N 23°26' E 117°54'713.4
2018-May-18 07:00N 23°31' E 117°59'713.4
2018-May-18 06:30N 23°35' E 118°05'815.3
2018-May-18 06:00N 23°40' E 118°11'816.6
2018-May-18 05:30N 23°46' E 118°18'816.5
2018-May-18 05:00N 23°51' E 118°25'816.5
2018-May-18 04:30N 23°57' E 118°32'816.1
2018-May-18 04:00N 24°02' E 118°38'816.2
2018-May-18 03:30N 24°07' E 118°45'816.1
2018-May-18 03:00N 24°12' E 118°52'815.9
2018-May-18 02:31N 24°17' E 118°59'  
2018-May-14 13:00N 32°14' E 125°54'1512.0
2018-May-14 11:47N 32°24' E 126°07'412.3
2018-May-14 11:26N 32°27' E 126°11'612.5
2018-May-14 10:55N 32°31' E 126°16'712.6
2018-May-14 10:22N 32°36' E 126°22'512.6
2018-May-14 10:00N 32°39' E 126°26'612.6
2018-May-14 09:30N 32°43' E 126°32'713.7
2018-May-14 09:00N 32°48' E 126°38'815.5
2018-May-14 08:30N 32°53' E 126°45'816.1
2018-May-14 08:00N 32°59' E 126°52'816.0
2018-May-14 07:31N 33°04' E 126°58'815.8
2018-May-14 07:01N 33°10' E 127°05'815.8
2018-May-14 06:29N 33°15' E 127°13'715.8
2018-May-14 06:01N 33°20' E 127°19'815.6
2018-May-14 05:31N 33°25' E 127°27'10314.8
2018-May-13 22:35N 34°40' E 128°51'119.0
2018-May-13 22:31N 34°42' E 128°51'1018.9
2018-May-13 21:58N 34°52' E 128°51'  
2018-May-11 12:11N 38°11' E 121°45'317.9
2018-May-11 12:01N 38°12' E 121°41'917.7
2018-May-11 11:30N 38°16' E 121°31'917.7
2018-May-11 11:00N 38°21' E 121°22'917.8
2018-May-11 10:31N 38°25' E 121°12'  
2018-May-09 02:17N 38°41' E 120°27'619.4
2018-May-09 01:59N 38°40' E 120°34'2715.6
2018-May-09 00:16N 38°32' E 121°07'519.4
2018-May-09 00:00N 38°31' E 121°13'1019.8
2018-May-08 23:29N 38°30' E 121°26'919.8
2018-May-08 23:00N 38°30' E 121°38'1019.4
2018-May-08 22:31N 38°37' E 121°47'1020.1
2018-May-08 22:01N 38°46' E 121°52'918.2
2018-May-08 21:30N 38°55' E 121°56'  
Track history (hours):
 
Tides and Currents Weather Stations Pressure Air Temp Water Temp Dewpoint Dewpoint Depression Visibility Wind Speed Wind Dir Waves Ship Positions

MSC Amsterdam

Last reported at 2018-May-18 11:22 UTC. Time now 2018-May-20 21:53 UTC.
Position N 22°56' E 117°09'.

Length 399 m; draft 12.3 m.

Type: Cargo ship. MMSI: 373598000.

Date/timePositionNaut miles runAvg speedWind from/ knotsBaromVisibWave heightAir tempDewpointWater temp
2018-May-18 11:22N 22°56' E 117°09'613.0
2018-May-18 10:55N 22°59' E 117°14'713.2
2018-May-18 10:24N 23°03' E 117°20'613.1
2018-May-18 09:55N 23°06' E 117°26'513.1
2018-May-18 09:30N 23°10' E 117°31'713.2
2018-May-18 09:00N 23°13' E 117°37'713.2
2018-May-18 08:30N 23°18' E 117°42'713.7
2018-May-18 08:00N 23°22' E 117°48'713.9
2018-May-18 07:30N 23°26' E 117°54'713.4
2018-May-18 07:00N 23°31' E 117°59'713.4
2018-May-18 06:30N 23°35' E 118°05'815.3
2018-May-18 06:00N 23°40' E 118°11'816.6
2018-May-18 05:30N 23°46' E 118°18'816.5
2018-May-18 05:00N 23°51' E 118°25'816.5
2018-May-18 04:30N 23°57' E 118°32'816.1
2018-May-18 04:00N 24°02' E 118°38'816.2
2018-May-18 03:30N 24°07' E 118°45'816.1
2018-May-18 03:00N 24°12' E 118°52'815.9
2018-May-18 02:31N 24°17' E 118°59'  
2018-May-14 13:00N 32°14' E 125°54'1512.0
2018-May-14 11:47N 32°24' E 126°07'412.3
2018-May-14 11:26N 32°27' E 126°11'612.5
2018-May-14 10:55N 32°31' E 126°16'712.6
2018-May-14 10:22N 32°36' E 126°22'512.6
2018-May-14 10:00N 32°39' E 126°26'612.6
2018-May-14 09:30N 32°43' E 126°32'713.7
2018-May-14 09:00N 32°48' E 126°38'815.5
2018-May-14 08:30N 32°53' E 126°45'816.1
2018-May-14 08:00N 32°59' E 126°52'816.0
2018-May-14 07:31N 33°04' E 126°58'815.8
2018-May-14 07:01N 33°10' E 127°05'815.8
2018-May-14 06:29N 33°15' E 127°13'715.8
2018-May-14 06:01N 33°20' E 127°19'815.6
2018-May-14 05:31N 33°25' E 127°27'10314.8
2018-May-13 22:35N 34°40' E 128°51'119.0
2018-May-13 22:31N 34°42' E 128°51'1018.9
2018-May-13 21:58N 34°52' E 128°51'  
2018-May-11 12:11N 38°11' E 121°45'317.9
2018-May-11 12:01N 38°12' E 121°41'917.7
2018-May-11 11:30N 38°16' E 121°31'917.7
2018-May-11 11:00N 38°21' E 121°22'917.8
2018-May-11 10:31N 38°25' E 121°12'  
2018-May-09 02:17N 38°41' E 120°27'619.4
2018-May-09 01:59N 38°40' E 120°34'2715.6
2018-May-09 00:16N 38°32' E 121°07'519.4
2018-May-09 00:00N 38°31' E 121°13'1019.8
2018-May-08 23:29N 38°30' E 121°26'919.8
2018-May-08 23:00N 38°30' E 121°38'1019.4
2018-May-08 22:31N 38°37' E 121°47'1020.1
2018-May-08 22:01N 38°46' E 121°52'918.2
2018-May-08 21:30N 38°55' E 121°56'  

Dump ship's entire track history